sensor_id;sensor_type;location;lat;lon;timestamp;P1;durP1;ratioP1;P2;durP2;ratioP2
14975;SDS011;7584;60.468;25.126;2023-05-31T00:00:42;1.43;;;0.40;;
14975;SDS011;7584;60.468;25.126;2023-05-31T00:03:07;2.50;;;0.50;;
14975;SDS011;7584;60.468;25.126;2023-05-31T00:05:32;1.90;;;0.50;;
14975;SDS011;7584;60.468;25.126;2023-05-31T00:07:58;2.23;;;0.60;;
14975;SDS011;7584;60.468;25.126;2023-05-31T00:10:23;4.00;;;1.10;;
14975;SDS011;7584;60.468;25.126;2023-05-31T00:12:48;1.33;;;0.40;;
14975;SDS011;7584;60.468;25.126;2023-05-31T00:15:14;5.73;;;0.80;;
14975;SDS011;7584;60.468;25.126;2023-05-31T00:17:39;4.13;;;0.63;;
14975;SDS011;7584;60.468;25.126;2023-05-31T00:20:04;0.90;;;0.50;;
14975;SDS011;7584;60.468;25.126;2023-05-31T00:22:30;1.50;;;0.60;;
14975;SDS011;7584;60.468;25.126;2023-05-31T00:24:55;0.80;;;0.60;;
14975;SDS011;7584;60.468;25.126;2023-05-31T00:27:20;0.93;;;0.50;;
14975;SDS011;7584;60.468;25.126;2023-05-31T00:29:46;2.50;;;0.60;;
14975;SDS011;7584;60.468;25.126;2023-05-31T00:32:11;3.70;;;0.73;;
14975;SDS011;7584;60.468;25.126;2023-05-31T00:34:36;1.97;;;0.70;;
14975;SDS011;7584;60.468;25.126;2023-05-31T00:37:02;0.87;;;0.50;;
14975;SDS011;7584;60.468;25.126;2023-05-31T00:39:27;1.60;;;0.57;;
14975;SDS011;7584;60.468;25.126;2023-05-31T00:41:52;1.37;;;0.70;;
14975;SDS011;7584;60.468;25.126;2023-05-31T00:44:18;1.67;;;0.70;;
14975;SDS011;7584;60.468;25.126;2023-05-31T00:46:43;4.33;;;1.00;;
14975;SDS011;7584;60.468;25.126;2023-05-31T00:49:08;1.43;;;0.60;;
14975;SDS011;7584;60.468;25.126;2023-05-31T00:51:34;0.90;;;0.67;;
14975;SDS011;7584;60.468;25.126;2023-05-31T00:54:00;4.67;;;0.80;;
14975;SDS011;7584;60.468;25.126;2023-05-31T00:56:25;2.47;;;0.70;;
14975;SDS011;7584;60.468;25.126;2023-05-31T00:58:51;1.73;;;0.73;;
14975;SDS011;7584;60.468;25.126;2023-05-31T01:01:18;2.97;;;1.10;;
14975;SDS011;7584;60.468;25.126;2023-05-31T01:03:43;2.83;;;0.73;;
14975;SDS011;7584;60.468;25.126;2023-05-31T01:06:09;3.73;;;0.80;;
14975;SDS011;7584;60.468;25.126;2023-05-31T01:08:35;1.20;;;0.70;;
14975;SDS011;7584;60.468;25.126;2023-05-31T01:11:02;2.83;;;1.00;;
14975;SDS011;7584;60.468;25.126;2023-05-31T01:13:58;1.80;;;1.00;;
14975;SDS011;7584;60.468;25.126;2023-05-31T01:16:21;4.53;;;0.70;;
14975;SDS011;7584;60.468;25.126;2023-05-31T01:18:57;2.90;;;0.60;;
14975;SDS011;7584;60.468;25.126;2023-05-31T01:21:30;1.37;;;0.70;;
14975;SDS011;7584;60.468;25.126;2023-05-31T01:29:01;3.37;;;0.97;;
14975;SDS011;7584;60.468;25.126;2023-05-31T01:31:28;2.93;;;0.80;;
14975;SDS011;7584;60.468;25.126;2023-05-31T01:33:55;2.90;;;1.00;;
14975;SDS011;7584;60.468;25.126;2023-05-31T01:36:20;1.87;;;0.83;;
14975;SDS011;7584;60.468;25.126;2023-05-31T01:38:46;1.23;;;0.70;;
14975;SDS011;7584;60.468;25.126;2023-05-31T01:41:11;1.10;;;0.67;;
14975;SDS011;7584;60.468;25.126;2023-05-31T01:43:39;5.03;;;1.00;;
14975;SDS011;7584;60.468;25.126;2023-05-31T01:46:05;2.50;;;0.90;;
14975;SDS011;7584;60.468;25.126;2023-05-31T01:48:31;2.13;;;0.90;;
14975;SDS011;7584;60.468;25.126;2023-05-31T01:50:57;5.23;;;0.90;;
14975;SDS011;7584;60.468;25.126;2023-05-31T01:53:23;3.80;;;1.17;;
14975;SDS011;7584;60.468;25.126;2023-05-31T01:55:48;2.50;;;1.00;;
14975;SDS011;7584;60.468;25.126;2023-05-31T01:58:13;3.60;;;1.10;;
14975;SDS011;7584;60.468;25.126;2023-05-31T02:00:40;3.47;;;1.13;;
14975;SDS011;7584;60.468;25.126;2023-05-31T02:03:05;3.23;;;1.00;;
14975;SDS011;7584;60.468;25.126;2023-05-31T02:05:31;3.23;;;1.27;;
14975;SDS011;7584;60.468;25.126;2023-05-31T02:07:56;5.70;;;1.20;;
14975;SDS011;7584;60.468;25.126;2023-05-31T02:10:21;2.43;;;1.03;;
14975;SDS011;7584;60.468;25.126;2023-05-31T02:12:47;2.10;;;1.00;;
14975;SDS011;7584;60.468;25.126;2023-05-31T02:15:15;3.73;;;0.90;;
14975;SDS011;7584;60.468;25.126;2023-05-31T02:17:41;4.70;;;1.40;;
14975;SDS011;7584;60.468;25.126;2023-05-31T02:20:11;4.97;;;1.00;;
14975;SDS011;7584;60.468;25.126;2023-05-31T02:22:38;3.60;;;1.27;;
14975;SDS011;7584;60.468;25.126;2023-05-31T02:25:04;4.70;;;1.17;;
14975;SDS011;7584;60.468;25.126;2023-05-31T02:27:30;3.83;;;1.00;;
14975;SDS011;7584;60.468;25.126;2023-05-31T02:29:55;3.90;;;1.40;;
14975;SDS011;7584;60.468;25.126;2023-05-31T02:32:20;1.73;;;1.10;;
14975;SDS011;7584;60.468;25.126;2023-05-31T02:34:46;3.43;;;1.27;;
14975;SDS011;7584;60.468;25.126;2023-05-31T02:37:11;2.60;;;1.13;;
14975;SDS011;7584;60.468;25.126;2023-05-31T02:39:36;3.83;;;1.07;;
14975;SDS011;7584;60.468;25.126;2023-05-31T02:42:01;2.77;;;1.10;;
14975;SDS011;7584;60.468;25.126;2023-05-31T02:44:27;3.27;;;0.97;;
14975;SDS011;7584;60.468;25.126;2023-05-31T02:46:52;3.00;;;1.03;;
14975;SDS011;7584;60.468;25.126;2023-05-31T02:49:17;5.37;;;1.00;;
14975;SDS011;7584;60.468;25.126;2023-05-31T02:51:42;5.33;;;1.10;;
14975;SDS011;7584;60.468;25.126;2023-05-31T02:54:08;2.57;;;1.00;;
14975;SDS011;7584;60.468;25.126;2023-05-31T02:56:33;4.17;;;0.97;;
14975;SDS011;7584;60.468;25.126;2023-05-31T02:58:58;4.50;;;1.30;;
14975;SDS011;7584;60.468;25.126;2023-05-31T03:01:23;4.07;;;1.20;;
14975;SDS011;7584;60.468;25.126;2023-05-31T03:03:49;5.13;;;1.13;;
14975;SDS011;7584;60.468;25.126;2023-05-31T03:06:14;5.17;;;1.40;;
14975;SDS011;7584;60.468;25.126;2023-05-31T03:08:42;3.50;;;1.30;;
14975;SDS011;7584;60.468;25.126;2023-05-31T03:11:07;3.87;;;1.10;;
14975;SDS011;7584;60.468;25.126;2023-05-31T03:13:32;2.13;;;1.00;;
14975;SDS011;7584;60.468;25.126;2023-05-31T03:15:57;3.90;;;1.43;;
14975;SDS011;7584;60.468;25.126;2023-05-31T03:18:23;11.53;;;1.47;;
14975;SDS011;7584;60.468;25.126;2023-05-31T03:20:48;5.63;;;2.00;;
14975;SDS011;7584;60.468;25.126;2023-05-31T03:23:13;5.03;;;1.53;;
14975;SDS011;7584;60.468;25.126;2023-05-31T03:25:38;4.30;;;1.43;;
14975;SDS011;7584;60.468;25.126;2023-05-31T03:28:04;6.37;;;1.27;;
14975;SDS011;7584;60.468;25.126;2023-05-31T03:30:29;3.87;;;1.07;;
14975;SDS011;7584;60.468;25.126;2023-05-31T03:32:54;5.37;;;1.67;;
14975;SDS011;7584;60.468;25.126;2023-05-31T03:35:20;3.40;;;1.47;;
14975;SDS011;7584;60.468;25.126;2023-05-31T03:37:45;6.23;;;2.00;;
14975;SDS011;7584;60.468;25.126;2023-05-31T03:40:10;6.40;;;1.40;;
14975;SDS011;7584;60.468;25.126;2023-05-31T03:42:36;4.87;;;1.60;;
14975;SDS011;7584;60.468;25.126;2023-05-31T03:45:02;5.00;;;1.60;;
14975;SDS011;7584;60.468;25.126;2023-05-31T03:47:28;6.13;;;1.40;;
14975;SDS011;7584;60.468;25.126;2023-05-31T03:49:53;4.30;;;1.43;;
14975;SDS011;7584;60.468;25.126;2023-05-31T03:52:18;3.53;;;1.37;;
14975;SDS011;7584;60.468;25.126;2023-05-31T03:54:44;2.90;;;1.20;;
14975;SDS011;7584;60.468;25.126;2023-05-31T03:57:09;5.10;;;1.23;;
14975;SDS011;7584;60.468;25.126;2023-05-31T03:59:34;4.97;;;1.20;;
14975;SDS011;7584;60.468;25.126;2023-05-31T04:02:00;4.50;;;1.30;;
14975;SDS011;7584;60.468;25.126;2023-05-31T04:04:25;5.30;;;1.40;;
14975;SDS011;7584;60.468;25.126;2023-05-31T04:06:51;6.57;;;1.50;;
14975;SDS011;7584;60.468;25.126;2023-05-31T04:09:16;3.70;;;1.60;;
14975;SDS011;7584;60.468;25.126;2023-05-31T04:11:42;4.43;;;1.23;;
14975;SDS011;7584;60.468;25.126;2023-05-31T04:14:08;7.43;;;1.60;;
14975;SDS011;7584;60.468;25.126;2023-05-31T04:16:33;4.83;;;1.50;;
14975;SDS011;7584;60.468;25.126;2023-05-31T04:18:58;5.50;;;1.30;;
14975;SDS011;7584;60.468;25.126;2023-05-31T04:21:23;3.00;;;1.13;;
14975;SDS011;7584;60.468;25.126;2023-05-31T04:23:49;4.97;;;1.37;;
14975;SDS011;7584;60.468;25.126;2023-05-31T04:26:14;3.37;;;1.30;;
14975;SDS011;7584;60.468;25.126;2023-05-31T04:28:43;5.83;;;1.70;;
14975;SDS011;7584;60.468;25.126;2023-05-31T04:31:08;8.40;;;1.43;;
14975;SDS011;7584;60.468;25.126;2023-05-31T04:33:33;5.80;;;1.23;;
14975;SDS011;7584;60.468;25.126;2023-05-31T04:36:00;5.07;;;1.43;;
14975;SDS011;7584;60.468;25.126;2023-05-31T04:38:25;8.07;;;1.73;;
14975;SDS011;7584;60.468;25.126;2023-05-31T04:40:52;4.67;;;1.53;;
14975;SDS011;7584;60.468;25.126;2023-05-31T04:43:19;5.23;;;1.50;;
14975;SDS011;7584;60.468;25.126;2023-05-31T04:45:44;7.33;;;1.37;;
14975;SDS011;7584;60.468;25.126;2023-05-31T04:48:09;4.70;;;1.47;;
14975;SDS011;7584;60.468;25.126;2023-05-31T04:50:35;4.20;;;1.47;;
14975;SDS011;7584;60.468;25.126;2023-05-31T04:53:00;7.37;;;1.37;;
14975;SDS011;7584;60.468;25.126;2023-05-31T04:55:25;4.37;;;1.53;;
14975;SDS011;7584;60.468;25.126;2023-05-31T04:57:51;4.67;;;1.30;;
14975;SDS011;7584;60.468;25.126;2023-05-31T05:00:16;6.37;;;1.60;;
14975;SDS011;7584;60.468;25.126;2023-05-31T05:02:42;5.20;;;1.47;;
14975;SDS011;7584;60.468;25.126;2023-05-31T05:05:11;5.00;;;1.13;;
14975;SDS011;7584;60.468;25.126;2023-05-31T05:07:36;4.73;;;1.60;;
14975;SDS011;7584;60.468;25.126;2023-05-31T05:10:02;7.20;;;1.60;;
14975;SDS011;7584;60.468;25.126;2023-05-31T05:12:28;3.20;;;1.27;;
14975;SDS011;7584;60.468;25.126;2023-05-31T05:14:53;5.70;;;1.57;;
14975;SDS011;7584;60.468;25.126;2023-05-31T05:17:18;4.27;;;1.40;;
14975;SDS011;7584;60.468;25.126;2023-05-31T05:19:44;5.97;;;1.67;;
14975;SDS011;7584;60.468;25.126;2023-05-31T05:22:09;6.07;;;1.70;;
14975;SDS011;7584;60.468;25.126;2023-05-31T05:24:35;6.63;;;1.23;;
14975;SDS011;7584;60.468;25.126;2023-05-31T05:27:01;5.50;;;1.60;;
14975;SDS011;7584;60.468;25.126;2023-05-31T05:29:26;5.37;;;1.57;;
14975;SDS011;7584;60.468;25.126;2023-05-31T05:31:51;6.50;;;1.60;;
14975;SDS011;7584;60.468;25.126;2023-05-31T05:34:17;4.00;;;1.33;;
14975;SDS011;7584;60.468;25.126;2023-05-31T05:36:43;5.37;;;1.70;;
14975;SDS011;7584;60.468;25.126;2023-05-31T05:39:08;4.53;;;1.37;;
14975;SDS011;7584;60.468;25.126;2023-05-31T05:41:33;2.80;;;1.57;;
14975;SDS011;7584;60.468;25.126;2023-05-31T05:43:59;4.33;;;1.83;;
14975;SDS011;7584;60.468;25.126;2023-05-31T05:46:24;4.93;;;1.50;;
14975;SDS011;7584;60.468;25.126;2023-05-31T05:48:49;3.87;;;2.00;;
14975;SDS011;7584;60.468;25.126;2023-05-31T05:51:14;4.90;;;1.40;;
14975;SDS011;7584;60.468;25.126;2023-05-31T05:53:40;4.90;;;1.43;;
14975;SDS011;7584;60.468;25.126;2023-05-31T05:56:05;6.77;;;1.43;;
14975;SDS011;7584;60.468;25.126;2023-05-31T05:58:31;5.00;;;1.40;;
14975;SDS011;7584;60.468;25.126;2023-05-31T06:00:56;4.53;;;0.97;;
14975;SDS011;7584;60.468;25.126;2023-05-31T06:03:21;5.13;;;1.40;;
14975;SDS011;7584;60.468;25.126;2023-05-31T06:05:48;6.43;;;1.63;;
14975;SDS011;7584;60.468;25.126;2023-05-31T06:08:13;5.13;;;1.43;;
14975;SDS011;7584;60.468;25.126;2023-05-31T06:10:39;5.57;;;1.37;;
14975;SDS011;7584;60.468;25.126;2023-05-31T06:13:06;4.33;;;1.40;;
14975;SDS011;7584;60.468;25.126;2023-05-31T06:15:31;5.00;;;1.70;;
14975;SDS011;7584;60.468;25.126;2023-05-31T06:17:56;6.30;;;1.60;;
14975;SDS011;7584;60.468;25.126;2023-05-31T06:20:22;3.77;;;1.40;;
14975;SDS011;7584;60.468;25.126;2023-05-31T06:22:47;6.10;;;1.60;;
14975;SDS011;7584;60.468;25.126;2023-05-31T06:25:14;4.57;;;1.40;;
14975;SDS011;7584;60.468;25.126;2023-05-31T06:27:40;7.28;;;1.73;;
14975;SDS011;7584;60.468;25.126;2023-05-31T06:30:07;4.75;;;1.35;;
14975;SDS011;7584;60.468;25.126;2023-05-31T06:32:35;4.57;;;1.52;;
14975;SDS011;7584;60.468;25.126;2023-05-31T06:35:00;4.53;;;1.38;;
14975;SDS011;7584;60.468;25.126;2023-05-31T06:37:25;5.53;;;1.25;;
14975;SDS011;7584;60.468;25.126;2023-05-31T06:39:52;3.73;;;1.40;;
14975;SDS011;7584;60.468;25.126;2023-05-31T06:42:19;8.82;;;1.50;;
14975;SDS011;7584;60.468;25.126;2023-05-31T06:44:44;5.10;;;1.48;;
14975;SDS011;7584;60.468;25.126;2023-05-31T06:47:10;6.90;;;2.00;;
14975;SDS011;7584;60.468;25.126;2023-05-31T06:49:35;6.38;;;1.48;;
14975;SDS011;7584;60.468;25.126;2023-05-31T06:52:01;7.03;;;1.98;;
14975;SDS011;7584;60.468;25.126;2023-05-31T06:54:27;3.90;;;1.45;;
14975;SDS011;7584;60.468;25.126;2023-05-31T06:56:52;4.85;;;1.45;;
14975;SDS011;7584;60.468;25.126;2023-05-31T06:59:18;5.18;;;1.73;;
14975;SDS011;7584;60.468;25.126;2023-05-31T07:01:43;2.95;;;1.55;;
14975;SDS011;7584;60.468;25.126;2023-05-31T07:04:08;5.65;;;1.50;;
14975;SDS011;7584;60.468;25.126;2023-05-31T07:06:34;2.88;;;1.30;;
14975;SDS011;7584;60.468;25.126;2023-05-31T07:09:00;7.20;;;1.63;;
14975;SDS011;7584;60.468;25.126;2023-05-31T07:11:25;4.45;;;1.65;;
14975;SDS011;7584;60.468;25.126;2023-05-31T07:13:51;4.05;;;1.42;;
14975;SDS011;7584;60.468;25.126;2023-05-31T07:16:16;4.68;;;1.38;;
14975;SDS011;7584;60.468;25.126;2023-05-31T07:18:41;5.88;;;1.85;;
14975;SDS011;7584;60.468;25.126;2023-05-31T07:21:07;4.30;;;1.40;;
14975;SDS011;7584;60.468;25.126;2023-05-31T07:23:33;4.72;;;1.42;;
14975;SDS011;7584;60.468;25.126;2023-05-31T07:25:58;2.50;;;1.20;;
14975;SDS011;7584;60.468;25.126;2023-05-31T07:28:25;4.95;;;1.48;;
14975;SDS011;7584;60.468;25.126;2023-05-31T07:30:51;3.40;;;1.33;;
14975;SDS011;7584;60.468;25.126;2023-05-31T07:33:16;3.42;;;1.40;;
14975;SDS011;7584;60.468;25.126;2023-05-31T07:35:42;2.97;;;1.52;;
14975;SDS011;7584;60.468;25.126;2023-05-31T07:38:08;4.28;;;1.50;;
14975;SDS011;7584;60.468;25.126;2023-05-31T07:40:34;3.28;;;1.13;;
14975;SDS011;7584;60.468;25.126;2023-05-31T07:42:59;3.78;;;1.08;;
14975;SDS011;7584;60.468;25.126;2023-05-31T07:45:25;4.38;;;1.40;;
14975;SDS011;7584;60.468;25.126;2023-05-31T07:47:50;3.22;;;1.20;;
14975;SDS011;7584;60.468;25.126;2023-05-31T07:50:17;7.45;;;1.52;;
14975;SDS011;7584;60.468;25.126;2023-05-31T07:52:43;5.22;;;1.40;;
14975;SDS011;7584;60.468;25.126;2023-05-31T07:55:11;3.00;;;1.20;;
14975;SDS011;7584;60.468;25.126;2023-05-31T07:57:37;2.88;;;1.48;;
14975;SDS011;7584;60.468;25.126;2023-05-31T08:00:03;1.92;;;1.10;;
14975;SDS011;7584;60.468;25.126;2023-05-31T08:02:28;2.95;;;1.30;;
14975;SDS011;7584;60.468;25.126;2023-05-31T08:04:53;3.95;;;1.17;;
14975;SDS011;7584;60.468;25.126;2023-05-31T08:07:19;3.03;;;0.98;;
14975;SDS011;7584;60.468;25.126;2023-05-31T08:09:45;3.28;;;1.15;;
14975;SDS011;7584;60.468;25.126;2023-05-31T08:12:12;4.60;;;1.30;;
14975;SDS011;7584;60.468;25.126;2023-05-31T08:14:37;2.08;;;0.95;;
14975;SDS011;7584;60.468;25.126;2023-05-31T08:17:03;2.58;;;1.20;;
14975;SDS011;7584;60.468;25.126;2023-05-31T08:19:28;2.42;;;1.27;;
14975;SDS011;7584;60.468;25.126;2023-05-31T08:21:53;3.50;;;1.50;;
14975;SDS011;7584;60.468;25.126;2023-05-31T08:24:19;4.43;;;1.27;;
14975;SDS011;7584;60.468;25.126;2023-05-31T08:26:44;4.15;;;1.35;;
14975;SDS011;7584;60.468;25.126;2023-05-31T08:29:10;5.43;;;1.45;;
14975;SDS011;7584;60.468;25.126;2023-05-31T08:31:35;5.68;;;1.40;;
14975;SDS011;7584;60.468;25.126;2023-05-31T08:34:00;2.88;;;1.02;;
14975;SDS011;7584;60.468;25.126;2023-05-31T08:36:26;5.18;;;1.45;;
14975;SDS011;7584;60.468;25.126;2023-05-31T08:38:51;1.55;;;0.95;;
14975;SDS011;7584;60.468;25.126;2023-05-31T08:41:17;5.63;;;1.63;;
14975;SDS011;7584;60.468;25.126;2023-05-31T08:43:42;5.88;;;1.52;;
14975;SDS011;7584;60.468;25.126;2023-05-31T08:46:09;4.55;;;1.60;;
14975;SDS011;7584;60.468;25.126;2023-05-31T08:51:00;2.67;;;1.40;;
14975;SDS011;7584;60.468;25.126;2023-05-31T08:53:26;2.92;;;1.20;;
14975;SDS011;7584;60.468;25.126;2023-05-31T08:55:52;3.80;;;1.50;;
14975;SDS011;7584;60.468;25.126;2023-05-31T08:58:19;1.88;;;1.17;;
14975;SDS011;7584;60.468;25.126;2023-05-31T09:00:44;5.70;;;1.40;;
14975;SDS011;7584;60.468;25.126;2023-05-31T09:03:11;4.50;;;1.40;;
14975;SDS011;7584;60.468;25.126;2023-05-31T09:05:36;3.05;;;1.50;;
14975;SDS011;7584;60.468;25.126;2023-05-31T09:08:01;4.18;;;1.58;;
14975;SDS011;7584;60.468;25.126;2023-05-31T09:10:27;1.98;;;0.80;;
14975;SDS011;7584;60.468;25.126;2023-05-31T09:12:53;5.75;;;1.25;;
14975;SDS011;7584;60.468;25.126;2023-05-31T09:15:19;2.63;;;0.60;;
14975;SDS011;7584;60.468;25.126;2023-05-31T09:17:46;2.08;;;0.60;;
14975;SDS011;7584;60.468;25.126;2023-05-31T09:20:12;4.38;;;0.68;;
14975;SDS011;7584;60.468;25.126;2023-05-31T09:22:37;1.52;;;0.50;;
14975;SDS011;7584;60.468;25.126;2023-05-31T09:25:03;2.83;;;0.70;;
14975;SDS011;7584;60.468;25.126;2023-05-31T09:27:35;2.45;;;0.47;;
14975;SDS011;7584;60.468;25.126;2023-05-31T09:30:10;1.17;;;0.50;;
14975;SDS011;7584;60.468;25.126;2023-05-31T09:32:36;4.20;;;0.70;;
14975;SDS011;7584;60.468;25.126;2023-05-31T09:35:17;1.92;;;0.68;;
14975;SDS011;7584;60.468;25.126;2023-05-31T09:37:43;2.70;;;0.93;;
14975;SDS011;7584;60.468;25.126;2023-05-31T09:40:09;3.25;;;0.60;;
14975;SDS011;7584;60.468;25.126;2023-05-31T09:42:37;3.15;;;0.80;;
14975;SDS011;7584;60.468;25.126;2023-05-31T09:45:02;3.60;;;0.70;;
14975;SDS011;7584;60.468;25.126;2023-05-31T09:47:28;3.33;;;0.70;;
14975;SDS011;7584;60.468;25.126;2023-05-31T09:49:54;1.67;;;0.60;;
14975;SDS011;7584;60.468;25.126;2023-05-31T09:52:22;2.35;;;0.82;;
14975;SDS011;7584;60.468;25.126;2023-05-31T09:54:48;1.75;;;0.80;;
14975;SDS011;7584;60.468;25.126;2023-05-31T09:57:29;3.25;;;0.80;;
14975;SDS011;7584;60.468;25.126;2023-05-31T09:59:59;3.40;;;0.65;;
14975;SDS011;7584;60.468;25.126;2023-05-31T10:02:31;1.25;;;0.70;;
14975;SDS011;7584;60.468;25.126;2023-05-31T10:04:56;0.82;;;0.50;;
14975;SDS011;7584;60.468;25.126;2023-05-31T10:07:22;1.13;;;0.57;;
14975;SDS011;7584;60.468;25.126;2023-05-31T10:09:47;2.05;;;0.45;;
14975;SDS011;7584;60.468;25.126;2023-05-31T10:12:13;2.38;;;0.40;;
14975;SDS011;7584;60.468;25.126;2023-05-31T10:14:40;2.28;;;0.57;;
14975;SDS011;7584;60.468;25.126;2023-05-31T10:17:10;1.67;;;0.70;;
14975;SDS011;7584;60.468;25.126;2023-05-31T10:19:40;1.48;;;0.55;;
14975;SDS011;7584;60.468;25.126;2023-05-31T10:22:07;1.67;;;0.40;;
14975;SDS011;7584;60.468;25.126;2023-05-31T10:24:44;0.68;;;0.50;;
14975;SDS011;7584;60.468;25.126;2023-05-31T10:27:23;0.95;;;0.45;;
14975;SDS011;7584;60.468;25.126;2023-05-31T10:29:52;1.33;;;0.40;;
14975;SDS011;7584;60.468;25.126;2023-05-31T10:32:22;1.80;;;0.60;;
14975;SDS011;7584;60.468;25.126;2023-05-31T10:34:49;1.25;;;0.50;;
14975;SDS011;7584;60.468;25.126;2023-05-31T10:37:15;0.75;;;0.40;;
14975;SDS011;7584;60.468;25.126;2023-05-31T10:44:59;2.92;;;0.70;;
14975;SDS011;7584;60.468;25.126;2023-05-31T10:47:32;5.38;;;0.70;;
14975;SDS011;7584;60.468;25.126;2023-05-31T10:49:58;1.10;;;0.60;;
14975;SDS011;7584;60.468;25.126;2023-05-31T10:52:26;2.90;;;0.80;;
14975;SDS011;7584;60.468;25.126;2023-05-31T10:54:53;0.98;;;0.50;;
14975;SDS011;7584;60.468;25.126;2023-05-31T10:57:38;1.50;;;0.45;;
14975;SDS011;7584;60.468;25.126;2023-05-31T11:00:04;0.60;;;0.47;;
14975;SDS011;7584;60.468;25.126;2023-05-31T11:02:31;3.72;;;0.60;;
14975;SDS011;7584;60.468;25.126;2023-05-31T11:04:57;2.28;;;0.60;;
14975;SDS011;7584;60.468;25.126;2023-05-31T11:07:42;3.60;;;0.77;;
14975;SDS011;7584;60.468;25.126;2023-05-31T11:10:07;2.15;;;0.65;;
14975;SDS011;7584;60.468;25.126;2023-05-31T11:12:36;2.58;;;0.73;;
14975;SDS011;7584;60.468;25.126;2023-05-31T11:15:04;1.98;;;0.63;;
14975;SDS011;7584;60.468;25.126;2023-05-31T11:17:38;1.58;;;0.70;;
14975;SDS011;7584;60.468;25.126;2023-05-31T11:20:03;1.48;;;0.70;;
14975;SDS011;7584;60.468;25.126;2023-05-31T11:22:30;1.42;;;0.77;;
14975;SDS011;7584;60.468;25.126;2023-05-31T11:24:55;2.17;;;0.80;;
14975;SDS011;7584;60.468;25.126;2023-05-31T11:27:44;1.85;;;0.65;;
14975;SDS011;7584;60.468;25.126;2023-05-31T11:30:13;1.55;;;0.60;;
14975;SDS011;7584;60.468;25.126;2023-05-31T11:35:04;2.95;;;0.70;;
14975;SDS011;7584;60.468;25.126;2023-05-31T11:37:32;1.90;;;0.57;;
14975;SDS011;7584;60.468;25.126;2023-05-31T11:40:01;1.25;;;0.60;;
14975;SDS011;7584;60.468;25.126;2023-05-31T11:42:30;1.85;;;0.80;;
14975;SDS011;7584;60.468;25.126;2023-05-31T11:44:55;1.42;;;0.60;;
14975;SDS011;7584;60.468;25.126;2023-05-31T11:47:25;1.20;;;0.40;;
14975;SDS011;7584;60.468;25.126;2023-05-31T11:49:50;3.22;;;0.50;;
14975;SDS011;7584;60.468;25.126;2023-05-31T11:52:16;3.47;;;0.63;;
14975;SDS011;7584;60.468;25.126;2023-05-31T11:54:43;1.55;;;0.40;;
14975;SDS011;7584;60.468;25.126;2023-05-31T11:57:09;3.00;;;0.60;;
14975;SDS011;7584;60.468;25.126;2023-05-31T11:59:35;1.38;;;0.63;;
14975;SDS011;7584;60.468;25.126;2023-05-31T12:02:02;1.42;;;0.50;;
14975;SDS011;7584;60.468;25.126;2023-05-31T12:04:28;0.75;;;0.50;;
14975;SDS011;7584;60.468;25.126;2023-05-31T12:06:53;1.10;;;0.50;;
14975;SDS011;7584;60.468;25.126;2023-05-31T12:09:22;1.42;;;0.32;;
14975;SDS011;7584;60.468;25.126;2023-05-31T12:11:47;1.60;;;0.57;;
14975;SDS011;7584;60.468;25.126;2023-05-31T12:14:12;5.25;;;0.50;;
14975;SDS011;7584;60.468;25.126;2023-05-31T12:16:39;4.10;;;0.50;;
14975;SDS011;7584;60.468;25.126;2023-05-31T12:19:10;1.00;;;0.40;;
14975;SDS011;7584;60.468;25.126;2023-05-31T12:21:36;4.82;;;0.55;;
14975;SDS011;7584;60.468;25.126;2023-05-31T12:24:04;3.80;;;0.43;;
14975;SDS011;7584;60.468;25.126;2023-05-31T12:26:35;3.80;;;0.45;;
14975;SDS011;7584;60.468;25.126;2023-05-31T12:29:01;6.65;;;0.40;;
14975;SDS011;7584;60.468;25.126;2023-05-31T12:31:26;5.65;;;0.55;;
14975;SDS011;7584;60.468;25.126;2023-05-31T12:36:41;5.32;;;0.55;;
14975;SDS011;7584;60.468;25.126;2023-05-31T12:39:07;1.75;;;0.30;;
14975;SDS011;7584;60.468;25.126;2023-05-31T12:41:34;2.50;;;0.60;;
14975;SDS011;7584;60.468;25.126;2023-05-31T12:43:59;2.17;;;0.50;;
14975;SDS011;7584;60.468;25.126;2023-05-31T12:46:25;3.80;;;0.45;;
14975;SDS011;7584;60.468;25.126;2023-05-31T12:48:50;1.73;;;0.28;;
14975;SDS011;7584;60.468;25.126;2023-05-31T12:51:21;3.83;;;0.38;;
14975;SDS011;7584;60.468;25.126;2023-05-31T12:53:47;1.23;;;0.40;;
14975;SDS011;7584;60.468;25.126;2023-05-31T12:56:12;5.35;;;0.60;;
14975;SDS011;7584;60.468;25.126;2023-05-31T12:58:38;6.57;;;0.77;;
14975;SDS011;7584;60.468;25.126;2023-05-31T13:01:03;6.18;;;0.52;;
14975;SDS011;7584;60.468;25.126;2023-05-31T13:03:28;4.13;;;0.47;;
14975;SDS011;7584;60.468;25.126;2023-05-31T13:05:54;6.32;;;0.70;;
14975;SDS011;7584;60.468;25.126;2023-05-31T13:08:19;5.68;;;0.40;;
14975;SDS011;7584;60.468;25.126;2023-05-31T13:10:44;3.92;;;0.40;;
14975;SDS011;7584;60.468;25.126;2023-05-31T13:13:10;2.90;;;0.38;;
14975;SDS011;7584;60.468;25.126;2023-05-31T13:15:35;32.05;;;1.80;;
14975;SDS011;7584;60.468;25.126;2023-05-31T13:18:00;1.60;;;0.35;;
14975;SDS011;7584;60.468;25.126;2023-05-31T13:20:25;1.58;;;0.22;;
14975;SDS011;7584;60.468;25.126;2023-05-31T13:22:51;0.70;;;0.40;;
14975;SDS011;7584;60.468;25.126;2023-05-31T13:25:16;2.47;;;0.47;;
14975;SDS011;7584;60.468;25.126;2023-05-31T13:27:41;3.13;;;0.52;;
14975;SDS011;7584;60.468;25.126;2023-05-31T13:30:07;2.95;;;0.30;;
14975;SDS011;7584;60.468;25.126;2023-05-31T13:32:33;1.00;;;0.40;;
14975;SDS011;7584;60.468;25.126;2023-05-31T13:34:58;10.77;;;0.82;;
14975;SDS011;7584;60.468;25.126;2023-05-31T13:37:23;2.85;;;0.50;;
14975;SDS011;7584;60.468;25.126;2023-05-31T13:39:48;2.08;;;0.45;;
14975;SDS011;7584;60.468;25.126;2023-05-31T13:42:14;1.55;;;0.43;;
14975;SDS011;7584;60.468;25.126;2023-05-31T13:44:39;1.85;;;0.43;;
14975;SDS011;7584;60.468;25.126;2023-05-31T13:47:05;3.60;;;0.30;;
14975;SDS011;7584;60.468;25.126;2023-05-31T13:49:30;1.90;;;0.47;;
14975;SDS011;7584;60.468;25.126;2023-05-31T13:51:55;3.50;;;0.40;;
14975;SDS011;7584;60.468;25.126;2023-05-31T13:54:21;4.65;;;0.60;;
14975;SDS011;7584;60.468;25.126;2023-05-31T13:56:46;1.42;;;0.32;;
14975;SDS011;7584;60.468;25.126;2023-05-31T13:59:11;1.08;;;0.30;;
14975;SDS011;7584;60.468;25.126;2023-05-31T14:01:37;21.92;;;2.05;;
14975;SDS011;7584;60.468;25.126;2023-05-31T14:04:02;2.25;;;0.30;;
14975;SDS011;7584;60.468;25.126;2023-05-31T14:06:27;0.55;;;0.35;;
14975;SDS011;7584;60.468;25.126;2023-05-31T14:08:52;1.08;;;0.30;;
14975;SDS011;7584;60.468;25.126;2023-05-31T14:11:18;0.63;;;0.20;;
14975;SDS011;7584;60.468;25.126;2023-05-31T14:13:43;0.98;;;0.50;;
14975;SDS011;7584;60.468;25.126;2023-05-31T14:16:08;0.52;;;0.30;;
14975;SDS011;7584;60.468;25.126;2023-05-31T14:18:34;0.80;;;0.30;;
14975;SDS011;7584;60.468;25.126;2023-05-31T14:20:59;1.60;;;0.30;;
14975;SDS011;7584;60.468;25.126;2023-05-31T14:23:24;3.50;;;0.30;;
14975;SDS011;7584;60.468;25.126;2023-05-31T14:25:50;2.67;;;0.40;;
14975;SDS011;7584;60.468;25.126;2023-05-31T14:28:16;2.63;;;0.80;;
14975;SDS011;7584;60.468;25.126;2023-05-31T14:30:41;1.55;;;0.30;;
14975;SDS011;7584;60.468;25.126;2023-05-31T14:33:06;0.80;;;0.20;;
14975;SDS011;7584;60.468;25.126;2023-05-31T14:35:32;3.65;;;0.32;;
14975;SDS011;7584;60.468;25.126;2023-05-31T14:37:57;2.63;;;0.32;;
14975;SDS011;7584;60.468;25.126;2023-05-31T14:40:22;4.22;;;0.60;;
14975;SDS011;7584;60.468;25.126;2023-05-31T14:42:48;3.25;;;0.30;;
14975;SDS011;7584;60.468;25.126;2023-05-31T14:45:13;1.30;;;0.40;;
14975;SDS011;7584;60.468;25.126;2023-05-31T14:47:39;5.70;;;0.50;;
14975;SDS011;7584;60.468;25.126;2023-05-31T14:50:04;1.35;;;0.38;;
14975;SDS011;7584;60.468;25.126;2023-05-31T14:52:30;1.60;;;0.47;;
14975;SDS011;7584;60.468;25.126;2023-05-31T14:54:55;2.47;;;0.40;;
14975;SDS011;7584;60.468;25.126;2023-05-31T14:57:20;1.33;;;0.40;;
14975;SDS011;7584;60.468;25.126;2023-05-31T14:59:45;2.50;;;0.32;;